createdAt,value
2019-02-03T00:00:57.220Z,47.80
2019-02-03T00:03:25.705Z,46.83
2019-02-03T00:05:54.133Z,48.23
2019-02-03T00:08:22.556Z,46.00
2019-02-03T00:10:50.961Z,47.23
2019-02-03T00:13:19.392Z,48.23
2019-02-03T00:15:48.078Z,47.50
2019-02-03T00:18:16.504Z,47.57
2019-02-03T00:20:45.160Z,47.30
2019-02-03T00:23:13.568Z,46.90
2019-02-03T00:25:42.241Z,46.90
2019-02-03T00:28:10.656Z,47.20
2019-02-03T00:30:39.372Z,48.20
2019-02-03T00:33:07.778Z,46.30
2019-02-03T00:35:36.211Z,47.33
2019-02-03T00:38:05.376Z,47.80
2019-02-03T00:40:33.829Z,47.63
2019-02-03T00:43:02.280Z,46.37
2019-02-03T00:45:30.684Z,46.57
2019-02-03T00:47:59.088Z,47.03
2019-02-03T00:50:27.596Z,47.33
2019-02-03T00:52:56.036Z,48.43
2019-02-03T00:55:24.464Z,46.87
2019-02-03T00:57:54.536Z,48.63
2019-02-03T01:00:23.040Z,47.27
2019-02-03T01:02:51.445Z,47.67
2019-02-03T01:05:20.316Z,48.13
2019-02-03T01:07:49.269Z,47.67
2019-02-03T01:10:23.840Z,48.67
2019-02-03T01:12:52.393Z,49.37
2019-02-03T01:15:20.838Z,49.50
2019-02-03T01:17:49.323Z,48.80
2019-02-03T01:20:23.222Z,48.07
2019-02-03T01:22:52.098Z,47.93
2019-02-03T01:25:20.861Z,47.05
2019-02-03T01:27:49.277Z,49.13
2019-02-03T01:30:22.117Z,50.03
2019-02-03T01:32:50.655Z,49.03
2019-02-03T01:35:19.195Z,51.13
2019-02-03T01:37:47.759Z,51.73
2019-02-03T01:40:18.399Z,52.13
2019-02-03T01:42:47.052Z,53.60
2019-02-03T01:45:21.265Z,52.90
2019-02-03T01:47:50.002Z,53.13
2019-02-03T01:50:18.428Z,53.77
2019-02-03T01:52:46.932Z,52.93
2019-02-03T01:55:18.073Z,54.10
2019-02-03T01:57:46.487Z,52.07
2019-02-03T02:00:17.983Z,52.77
2019-02-03T02:02:46.684Z,54.57
2019-02-03T02:05:15.560Z,52.37
2019-02-03T02:07:51.282Z,52.07
2019-02-03T02:10:16.862Z,52.27
2019-02-03T02:12:45.336Z,51.63
2019-02-03T02:15:15.808Z,52.90
2019-02-03T02:17:44.376Z,51.10
2019-02-03T02:20:18.492Z,49.73
2019-02-03T02:22:47.001Z,51.33
2019-02-03T02:25:15.545Z,48.90
2019-02-03T02:27:43.977Z,47.83
2019-02-03T02:30:16.268Z,49.20
2019-02-03T02:32:44.693Z,49.07
2019-02-03T02:35:13.347Z,48.27
2019-02-03T02:37:41.772Z,50.30
2019-02-03T02:40:13.707Z,48.77
2019-02-03T02:42:42.233Z,47.87
2019-02-03T02:45:11.254Z,47.97
2019-02-03T02:47:39.680Z,45.97
2019-02-03T02:50:11.392Z,45.87
2019-02-03T02:52:39.817Z,46.23
2019-02-03T02:55:09.572Z,45.97
2019-02-03T02:57:38.552Z,47.43
2019-02-03T03:00:12.798Z,45.57
2019-02-03T03:02:41.281Z,45.97
2019-02-03T03:05:10.629Z,47.17
2019-02-03T03:07:39.062Z,45.23
2019-02-03T03:10:13.476Z,44.03
2019-02-03T03:12:41.980Z,44.17
2019-02-03T03:15:13.216Z,42.97
2019-02-03T03:17:41.653Z,44.37
2019-02-03T03:20:12.869Z,43.87
2019-02-03T03:22:41.352Z,44.17
2019-02-03T03:25:12.756Z,43.87
2019-02-03T03:27:41.205Z,44.10
2019-02-03T03:30:15.664Z,42.83
2019-02-03T03:32:44.093Z,43.17
2019-02-03T03:35:12.587Z,42.80
2019-02-03T03:37:41.371Z,42.47
2019-02-03T03:40:13.345Z,43.07
2019-02-03T03:42:41.900Z,41.70
2019-02-03T03:45:10.660Z,41.50
2019-02-03T03:47:39.100Z,41.90
2019-02-03T03:50:10.550Z,41.70
2019-02-03T03:52:39.565Z,41.77
2019-02-03T03:55:08.628Z,40.30
2019-02-03T03:57:37.049Z,39.97
2019-02-03T04:00:08.523Z,41.33
2019-02-03T04:02:36.949Z,40.03
2019-02-03T04:05:08.877Z,38.50
2019-02-03T04:07:37.372Z,38.20
2019-02-03T04:10:14.181Z,37.97
2019-02-03T04:12:42.637Z,38.10
2019-02-03T04:15:13.742Z,37.50
2019-02-03T04:17:42.456Z,37.70
2019-02-03T04:20:14.448Z,37.63
2019-02-03T04:22:42.855Z,36.97
2019-02-03T04:25:11.766Z,38.73
2019-02-03T04:27:40.190Z,37.77
2019-02-03T04:30:11.417Z,36.73
2019-02-03T04:32:39.815Z,37.77
2019-02-03T04:35:08.385Z,37.67
2019-02-03T04:37:36.789Z,37.50
2019-02-03T04:40:08.285Z,36.40
2019-02-03T04:42:36.712Z,37.60
2019-02-03T04:45:08.192Z,37.70
2019-02-03T04:47:36.884Z,38.40
2019-02-03T04:50:08.358Z,36.97
2019-02-03T04:52:36.833Z,36.93
2019-02-03T04:55:08.312Z,35.63
2019-02-03T04:57:37.089Z,34.47
2019-02-03T05:00:08.575Z,34.97
2019-02-03T05:02:36.992Z,35.03
2019-02-03T05:05:06.539Z,34.20
2019-02-03T05:07:34.965Z,33.63
2019-02-03T05:10:05.288Z,32.93
2019-02-03T05:12:33.705Z,31.43
2019-02-03T05:15:02.125Z,33.80
2019-02-03T05:17:30.561Z,32.20
2019-02-03T05:19:58.960Z,32.13
2019-02-03T05:22:27.381Z,30.20
2019-02-03T05:24:55.779Z,33.43
2019-02-03T05:27:24.212Z,31.37
2019-02-03T05:29:52.902Z,31.03
2019-02-03T05:32:21.317Z,31.07
2019-02-03T05:34:49.793Z,31.10
2019-02-03T05:37:18.212Z,30.67
2019-02-03T05:39:46.636Z,30.53
2019-02-03T05:42:15.048Z,30.97
2019-02-03T05:44:43.473Z,29.50
2019-02-03T05:47:11.878Z,29.50
2019-02-03T05:49:40.312Z,30.00
2019-02-03T05:52:08.720Z,28.00
2019-02-03T05:54:37.124Z,29.43
2019-02-03T05:57:05.631Z,28.33
2019-02-03T05:59:34.052Z,27.77
2019-02-03T06:02:02.476Z,27.80
2019-02-03T06:04:30.876Z,28.03
2019-02-03T06:06:59.315Z,28.60
2019-02-03T06:09:36.368Z,26.90
2019-02-03T06:11:57.861Z,27.40
2019-02-03T06:14:26.298Z,26.70
2019-02-03T06:16:54.803Z,26.77
2019-02-03T06:19:23.237Z,27.03
2019-02-03T06:21:51.649Z,26.30
2019-02-03T06:24:20.080Z,26.70
2019-02-03T06:26:48.508Z,25.43
2019-02-03T06:29:16.932Z,27.00
2019-02-03T06:31:45.385Z,25.70
2019-02-03T06:34:13.819Z,25.40
2019-02-03T06:36:42.216Z,24.27
2019-02-03T06:39:10.645Z,24.40
2019-02-03T06:41:39.085Z,26.37
2019-02-03T06:44:07.501Z,26.20
2019-02-03T06:46:40.056Z,25.40
2019-02-03T06:49:10.096Z,24.77
2019-02-03T06:51:38.546Z,24.60
2019-02-03T06:54:06.952Z,24.07
2019-02-03T06:56:35.471Z,24.27
2019-02-03T06:59:04.028Z,23.07
2019-02-03T07:01:32.452Z,23.97
2019-02-03T07:04:00.885Z,24.63
2019-02-03T07:06:29.281Z,24.10
2019-02-03T07:08:57.891Z,24.98
2019-02-03T07:11:26.291Z,23.47
2019-02-03T07:13:54.799Z,23.60
2019-02-03T07:16:23.196Z,23.47
2019-02-03T07:18:51.621Z,24.03
2019-02-03T07:21:20.030Z,22.67
2019-02-03T07:23:48.600Z,23.30
2019-02-03T07:26:17.028Z,23.30
2019-02-03T07:28:45.431Z,24.27
2019-02-03T07:31:13.855Z,24.43
2019-02-03T07:33:42.304Z,23.50
2019-02-03T07:36:10.717Z,21.93
2019-02-03T07:38:39.122Z,22.73
2019-02-03T07:41:07.552Z,23.17
2019-02-03T07:43:35.981Z,23.40
2019-02-03T07:46:04.460Z,22.97
2019-02-03T07:48:32.868Z,23.90
2019-02-03T07:51:01.284Z,23.37
2019-02-03T07:53:29.872Z,24.17
2019-02-03T07:55:58.296Z,23.43
2019-02-03T07:58:26.865Z,22.17
2019-02-03T08:00:55.268Z,22.87
2019-02-03T08:03:25.511Z,22.30
2019-02-03T08:05:54.083Z,23.73
2019-02-03T08:08:22.769Z,22.13
2019-02-03T08:10:51.255Z,23.10
2019-02-03T08:13:19.683Z,23.07
2019-02-03T08:15:48.128Z,21.60
2019-02-03T08:18:16.617Z,22.77
2019-02-03T08:20:45.020Z,22.23
2019-02-03T08:23:13.722Z,22.90
2019-02-03T08:25:42.137Z,23.57
2019-02-03T08:28:10.569Z,22.20
2019-02-03T08:30:40.249Z,20.97
2019-02-03T08:33:08.650Z,21.57
2019-02-03T08:35:37.314Z,22.63
2019-02-03T08:38:06.068Z,23.03
2019-02-03T08:40:36.926Z,21.53
2019-02-03T08:43:10.483Z,21.80
2019-02-03T08:45:38.917Z,21.33
2019-02-03T08:48:07.426Z,22.60
2019-02-03T08:50:35.833Z,21.27
2019-02-03T08:53:04.576Z,21.60
2019-02-03T08:55:33.064Z,21.70
2019-02-03T08:58:01.495Z,21.87
2019-02-03T09:00:34.700Z,23.00
2019-02-03T09:03:03.174Z,21.93
2019-02-03T09:05:31.897Z,22.10
2019-02-03T09:08:00.365Z,21.50
2019-02-03T09:10:28.864Z,20.97
2019-02-03T09:12:57.360Z,20.70
2019-02-03T09:15:27.130Z,21.40
2019-02-03T09:17:55.556Z,21.20
2019-02-03T09:20:34.684Z,19.83
2019-02-03T09:23:03.247Z,18.70
2019-02-03T09:25:31.656Z,21.17
2019-02-03T09:28:00.324Z,20.33
2019-02-03T09:30:33.726Z,18.03
2019-02-03T09:33:02.777Z,18.77
2019-02-03T09:35:31.200Z,19.77
2019-02-03T09:38:00.752Z,18.53
2019-02-03T09:40:31.887Z,18.03
2019-02-03T09:43:00.520Z,18.30
2019-02-03T09:45:29.865Z,17.27
2019-02-03T09:47:58.287Z,15.50
2019-02-03T09:50:31.432Z,15.77
2019-02-03T09:53:01.182Z,15.60
2019-02-03T09:55:30.043Z,14.80
2019-02-03T09:57:59.580Z,14.43
2019-02-03T10:00:31.052Z,14.07
2019-02-03T10:03:00.615Z,14.17
2019-02-03T10:05:29.105Z,13.60
2019-02-03T10:07:57.512Z,13.27
2019-02-03T10:10:28.573Z,12.73
2019-02-03T10:12:57.284Z,11.87
2019-02-03T10:15:25.717Z,12.30
2019-02-03T10:17:54.136Z,12.23
2019-02-03T10:20:23.804Z,12.33
2019-02-03T10:22:52.297Z,11.73
2019-02-03T10:25:26.320Z,11.90
2019-02-03T10:27:55.098Z,11.30
2019-02-03T10:30:24.450Z,11.00
2019-02-03T10:32:53.380Z,10.87
2019-02-03T10:35:26.620Z,10.83
2019-02-03T10:37:55.087Z,9.80
2019-02-03T10:40:26.149Z,10.87
2019-02-03T10:42:56.628Z,9.40
2019-02-03T10:45:25.668Z,9.00
2019-02-03T10:47:54.255Z,8.77
2019-02-03T10:50:25.756Z,9.40
2019-02-03T10:52:54.404Z,8.40
2019-02-03T10:55:22.949Z,7.97
2019-02-03T10:57:51.415Z,8.63
2019-02-03T11:00:25.498Z,8.57
2019-02-03T11:02:53.990Z,7.97
2019-02-03T11:05:25.229Z,7.20
2019-02-03T11:07:54.188Z,7.13
2019-02-03T11:10:29.111Z,7.30
2019-02-03T11:12:57.677Z,7.17
2019-02-03T11:15:26.317Z,7.47
2019-02-03T11:17:54.728Z,6.47
2019-02-03T11:20:31.344Z,7.87
2019-02-03T11:22:59.953Z,7.00
2019-02-03T11:25:31.128Z,7.60
2019-02-03T11:27:59.521Z,6.93
2019-02-03T11:30:29.764Z,7.10
2019-02-03T11:33:05.238Z,7.00
2019-02-03T11:35:31.304Z,6.17
2019-02-03T11:37:59.832Z,7.33
2019-02-03T11:40:30.297Z,6.47
2019-02-03T11:42:58.798Z,6.73
2019-02-03T11:45:32.552Z,6.27
2019-02-03T11:48:01.399Z,6.40
2019-02-03T11:50:35.580Z,7.07
2019-02-03T11:53:05.685Z,6.70
2019-02-03T11:55:34.119Z,6.40
2019-02-03T11:58:02.517Z,7.30
2019-02-03T12:00:32.174Z,6.33
2019-02-03T12:03:01.028Z,5.87
2019-02-03T12:05:29.461Z,5.70
2019-02-03T12:07:58.264Z,6.47
2019-02-03T12:10:30.608Z,6.30
2019-02-03T12:12:59.099Z,6.20
2019-02-03T12:15:28.272Z,6.63
2019-02-03T12:17:57.181Z,6.40
2019-02-03T12:20:25.907Z,6.57
2019-02-03T12:22:54.305Z,6.70
2019-02-03T12:25:28.200Z,5.97
2019-02-03T12:27:56.665Z,6.27
2019-02-03T12:30:28.044Z,6.43
2019-02-03T12:32:56.786Z,5.97
2019-02-03T12:35:25.989Z,5.73
2019-02-03T12:37:54.544Z,6.10
2019-02-03T12:40:30.248Z,5.90
2019-02-03T12:42:59.163Z,5.70
2019-02-03T12:45:28.134Z,5.83
2019-02-03T12:47:58.314Z,7.03
2019-02-03T12:50:26.804Z,6.57
2019-02-03T12:52:55.213Z,7.23
2019-02-03T12:55:26.242Z,6.60
2019-02-03T12:57:55.652Z,6.90
2019-02-03T13:00:28.765Z,6.60
2019-02-03T13:02:57.323Z,6.40
2019-02-03T13:05:27.392Z,6.63
2019-02-03T13:07:56.464Z,6.53
2019-02-03T13:10:27.753Z,6.83
2019-02-03T13:12:56.148Z,6.60
2019-02-03T13:15:27.277Z,6.30
2019-02-03T13:17:55.928Z,6.90
2019-02-03T13:20:29.128Z,6.53
2019-02-03T13:22:57.860Z,6.17
2019-02-03T13:25:26.409Z,5.87
2019-02-03T13:27:54.960Z,5.83
2019-02-03T13:30:29.015Z,6.07
2019-02-03T13:32:57.506Z,6.00
2019-02-03T13:35:26.413Z,6.00
2019-02-03T13:37:55.510Z,5.30
2019-02-03T13:40:24.413Z,5.40
2019-02-03T13:42:53.307Z,5.70
2019-02-03T13:45:23.840Z,5.57
2019-02-03T13:47:53.276Z,5.40
2019-02-03T13:50:26.434Z,5.70
2019-02-03T13:52:55.597Z,5.13
2019-02-03T13:55:24.747Z,5.70
2019-02-03T13:57:53.307Z,5.23
2019-02-03T14:00:39.187Z,5.70
2019-02-03T14:03:07.740Z,6.20
2019-02-03T14:05:36.261Z,6.53
2019-02-03T14:08:05.103Z,5.67
2019-02-03T14:10:38.224Z,5.23
2019-02-03T14:13:08.282Z,6.30
2019-02-03T14:15:36.840Z,6.00
2019-02-03T14:18:07.161Z,9.97
2019-02-03T14:20:36.461Z,5.57
2019-02-03T14:23:05.356Z,5.73
2019-02-03T14:25:33.824Z,6.13
2019-02-03T14:28:02.313Z,6.20
2019-02-03T14:30:41.036Z,6.80
2019-02-03T14:33:09.792Z,6.62
2019-02-03T14:35:38.288Z,6.87
2019-02-03T14:38:07.050Z,6.20
2019-02-03T14:40:35.599Z,6.17
2019-02-03T14:43:04.464Z,6.60
2019-02-03T14:45:33.208Z,6.83
2019-02-03T14:48:01.636Z,6.37
2019-02-03T14:50:30.132Z,7.33
2019-02-03T14:53:04.480Z,7.37
2019-02-03T14:55:35.613Z,7.30
2019-02-03T14:58:04.692Z,7.17
2019-02-03T15:00:41.344Z,7.80
2019-02-03T15:03:12.385Z,7.40
2019-02-03T15:05:40.881Z,7.80
2019-02-03T15:08:09.473Z,8.43
2019-02-03T15:10:38.036Z,8.47
2019-02-03T15:13:14.350Z,8.07
2019-02-03T15:15:37.377Z,8.67
2019-02-03T15:18:06.478Z,8.50
2019-02-03T15:20:34.893Z,8.50
2019-02-03T15:23:03.439Z,9.10
2019-02-03T15:25:32.204Z,8.90
2019-02-03T15:28:00.620Z,9.97
2019-02-03T15:30:35.320Z,9.93
2019-02-03T15:33:03.928Z,9.53
2019-02-03T15:35:32.520Z,9.27
2019-02-03T15:38:00.989Z,9.30
2019-02-03T15:40:29.424Z,10.43
2019-02-03T15:42:58.360Z,11.07
2019-02-03T15:45:27.308Z,10.40
2019-02-03T15:47:55.736Z,9.57
2019-02-03T15:50:28.737Z,10.30
2019-02-03T15:52:57.880Z,11.43
2019-02-03T15:55:31.763Z,10.33
2019-02-03T15:58:00.246Z,10.50
2019-02-03T16:00:34.319Z,10.20
2019-02-03T16:03:02.731Z,10.23
2019-02-03T16:05:31.244Z,10.00
2019-02-03T16:07:59.640Z,9.90
2019-02-03T16:10:28.412Z,9.50
2019-02-03T16:12:56.840Z,10.10
2019-02-03T16:15:25.255Z,9.47
2019-02-03T16:17:53.658Z,10.13
2019-02-03T16:20:24.145Z,10.90
2019-02-03T16:22:52.615Z,9.87
2019-02-03T16:25:22.446Z,10.07
2019-02-03T16:27:51.284Z,10.37
2019-02-03T16:30:23.620Z,9.70
2019-02-03T16:32:52.448Z,10.80
2019-02-03T16:35:21.197Z,10.10
2019-02-03T16:37:49.621Z,9.03
2019-02-03T16:40:23.396Z,10.27
2019-02-03T16:42:51.807Z,9.87
2019-02-03T16:45:20.280Z,9.07
2019-02-03T16:47:49.124Z,8.47
2019-02-03T16:50:19.711Z,9.13
2019-02-03T16:52:48.272Z,8.70
2019-02-03T16:55:18.114Z,9.30
2019-02-03T16:57:47.495Z,20.27
2019-02-03T17:00:26.653Z,8.73
2019-02-03T17:02:55.152Z,9.23
2019-02-03T17:05:26.267Z,8.57
2019-02-03T17:07:55.220Z,8.20
2019-02-03T17:10:24.955Z,8.03
2019-02-03T17:12:53.608Z,8.10
2019-02-03T17:15:27.394Z,9.20
2019-02-03T17:17:56.264Z,8.40
2019-02-03T17:20:25.155Z,8.73
2019-02-03T17:22:53.679Z,8.07
2019-02-03T17:25:31.277Z,8.17
2019-02-03T17:28:01.219Z,8.10
2019-02-03T17:30:30.092Z,8.73
2019-02-03T17:32:58.580Z,9.33
2019-02-03T17:35:27.160Z,7.80
2019-02-03T17:37:55.559Z,8.17
2019-02-03T17:40:24.290Z,8.17
2019-02-03T17:42:52.695Z,7.87
2019-02-03T17:45:25.844Z,7.87
2019-02-03T17:47:54.389Z,8.33
2019-02-03T17:50:25.597Z,8.47
2019-02-03T17:52:54.088Z,9.00
2019-02-03T17:55:22.981Z,8.37
2019-02-03T17:57:52.948Z,7.50
2019-02-03T18:00:43.725Z,7.93
2019-02-03T18:03:12.301Z,7.50
2019-02-03T18:05:41.000Z,8.07
2019-02-03T18:08:10.455Z,7.27
2019-02-03T18:10:39.153Z,8.23
2019-02-03T18:13:08.028Z,15.93
2019-02-03T18:15:36.597Z,9.17
2019-02-03T18:18:07.013Z,7.73
2019-02-03T18:20:35.412Z,8.10
2019-02-03T18:23:05.922Z,7.23
2019-02-03T18:25:34.425Z,7.50
2019-02-03T18:28:02.825Z,8.07
2019-02-03T18:30:34.165Z,8.53
2019-02-03T18:33:02.709Z,7.77
2019-02-03T18:35:31.128Z,7.57
2019-02-03T18:38:02.615Z,7.47
2019-02-03T18:40:31.045Z,7.87
2019-02-03T18:43:02.081Z,8.50
2019-02-03T18:45:30.740Z,8.63
2019-02-03T18:47:59.175Z,7.90
2019-02-03T18:50:27.675Z,8.93
2019-02-03T18:52:56.196Z,7.53
2019-02-03T18:55:36.191Z,8.33
2019-02-03T18:58:05.446Z,7.80
2019-02-03T19:00:35.848Z,7.53
2019-02-03T19:03:06.888Z,8.10
2019-02-03T19:05:37.656Z,8.03
2019-02-03T19:08:07.012Z,7.20
2019-02-03T19:10:35.524Z,7.10
2019-02-03T19:13:05.757Z,7.13
2019-02-03T19:15:34.673Z,6.83
2019-02-03T19:18:03.091Z,6.60
2019-02-03T19:20:36.889Z,6.63
2019-02-03T19:23:06.499Z,6.10
2019-02-03T19:25:35.014Z,6.37
2019-02-03T19:28:03.415Z,6.63
2019-02-03T19:30:32.269Z,5.80
2019-02-03T19:33:00.689Z,6.50
2019-02-03T19:35:31.768Z,6.60
2019-02-03T19:38:00.256Z,6.07
2019-02-03T19:40:30.504Z,5.53
2019-02-03T19:42:59.250Z,6.83
2019-02-03T19:45:30.439Z,5.63
2019-02-03T19:47:58.984Z,6.23
2019-02-03T19:50:36.173Z,5.80
2019-02-03T19:53:05.915Z,6.87
2019-02-03T19:55:34.371Z,6.07
2019-02-03T19:58:03.049Z,5.93
2019-02-03T20:00:39.764Z,5.97
2019-02-03T20:03:08.272Z,6.83
2019-02-03T20:05:36.845Z,6.97
2019-02-03T20:08:05.901Z,6.23
2019-02-03T20:10:34.929Z,6.40
2019-02-03T20:13:03.490Z,6.50
2019-02-03T20:15:32.217Z,6.73
2019-02-03T20:18:00.661Z,6.70
2019-02-03T20:20:34.205Z,6.77
2019-02-03T20:23:02.595Z,7.27
2019-02-03T20:25:31.118Z,6.60
2019-02-03T20:27:59.611Z,7.17
2019-02-03T20:30:37.819Z,7.87
2019-02-03T20:33:00.234Z,7.93
2019-02-03T20:35:29.500Z,7.47
2019-02-03T20:37:58.568Z,8.67
2019-02-03T20:40:30.609Z,7.97
2019-02-03T20:42:59.036Z,8.63
2019-02-03T20:45:27.686Z,7.40
2019-02-03T20:47:56.099Z,7.73
2019-02-03T20:50:25.060Z,7.27
2019-02-03T20:52:53.918Z,7.70
2019-02-03T20:55:22.520Z,8.50
2019-02-03T20:57:50.925Z,8.53
2019-02-03T21:00:24.760Z,8.13
2019-02-03T21:02:54.292Z,8.13
2019-02-03T21:05:22.888Z,8.37
2019-02-03T21:07:51.578Z,8.60
2019-02-03T21:10:21.902Z,8.00
2019-02-03T21:12:51.627Z,7.67
2019-02-03T21:15:32.628Z,8.43
2019-02-03T21:17:52.106Z,8.43
2019-02-03T21:20:25.672Z,8.00
2019-02-03T21:22:54.345Z,8.57
2019-02-03T21:25:22.929Z,8.67
2019-02-03T21:27:51.433Z,7.60
2019-02-03T21:30:34.437Z,7.20
2019-02-03T21:33:03.784Z,7.53
2019-02-03T21:35:32.264Z,6.67
2019-02-03T21:38:00.694Z,6.90
2019-02-03T21:40:33.952Z,6.57
2019-02-03T21:43:02.741Z,6.77
2019-02-03T21:45:31.171Z,6.70
2019-02-03T21:47:59.896Z,7.07
2019-02-03T21:50:30.176Z,6.27
2019-02-03T21:52:58.920Z,7.30
2019-02-03T21:55:27.655Z,6.87
2019-02-03T21:57:56.375Z,7.07
2019-02-03T22:00:31.074Z,6.17
2019-02-03T22:02:59.580Z,6.57
2019-02-03T22:05:28.580Z,6.37
2019-02-03T22:07:57.085Z,5.90
2019-02-03T22:10:30.027Z,6.67
2019-02-03T22:12:58.908Z,7.30
2019-02-03T22:15:27.414Z,7.03
2019-02-03T22:17:55.815Z,6.57
2019-02-03T22:20:24.880Z,7.03
2019-02-03T22:22:53.424Z,6.83
2019-02-03T22:25:21.848Z,6.07
2019-02-03T22:27:50.886Z,5.80
2019-02-03T22:30:22.111Z,5.57
2019-02-03T22:32:50.609Z,4.97
2019-02-03T22:35:19.036Z,5.43
2019-02-03T22:37:47.465Z,6.20
2019-02-03T22:40:18.201Z,5.63
2019-02-03T22:42:46.760Z,6.57
2019-02-03T22:45:17.444Z,5.43
2019-02-03T22:47:45.947Z,5.90
2019-02-03T22:50:22.616Z,5.53
2019-02-03T22:52:51.145Z,6.07
2019-02-03T22:55:19.805Z,5.97
2019-02-03T22:57:48.279Z,5.83
2019-02-03T23:00:27.275Z,5.63
2019-02-03T23:02:55.681Z,5.93
2019-02-03T23:05:24.327Z,7.37
2019-02-03T23:07:52.773Z,5.93
2019-02-03T23:10:21.192Z,5.57
2019-02-03T23:12:49.704Z,5.85
2019-02-03T23:15:18.205Z,6.57
2019-02-03T23:17:46.632Z,6.10
2019-02-03T23:20:15.104Z,7.40
2019-02-03T23:22:43.704Z,6.47
2019-02-03T23:25:12.112Z,6.97
2019-02-03T23:27:40.548Z,7.00
2019-02-03T23:30:14.545Z,6.13
2019-02-03T23:32:43.193Z,7.27
2019-02-03T23:35:11.786Z,6.93
2019-02-03T23:37:40.217Z,7.50
2019-02-03T23:40:11.850Z,7.10
2019-02-03T23:42:40.252Z,6.70
2019-02-03T23:45:20.159Z,7.00
2019-02-03T23:47:48.939Z,7.60
2019-02-03T23:50:19.484Z,7.80
2019-02-03T23:52:47.980Z,7.13
2019-02-03T23:55:16.460Z,7.33
2019-02-03T23:57:44.868Z,7.03
